Greenspond, Canada
Current Conditions -  °F | °C
As of 9:00 AM on Monday 24 Nov 2014 (Local Time) from CYQX Reporting Station
Few Clouds Few Clouds  
Wind Chill: -12°   Ceiling: Unl
Heat Index: -5°   Visibility: 20mi
Dew Point: -11°   Wind: 14mph
Humidity: 63%   Direction: 280°W
Pressure: 30.26"   Gusts: NA
Location:  49.05°N, 53.58°W
Report Text: CYQX 241200Z 28012KT 20SM FEW240 M05/M11 A3026 RMK CI1 SC TR SLP258
Loading
Personal Weather Stations






























Interactive Weather Map New forecast layout! Learn more

10-Day Weather Forecast

Advertisements
Track Severe Weather on mobile